Time;durP1;ratioP1;P1;durP2;ratioP2;P2;SDS_P1;SDS_P2;PMS_P1;PMS_P2;Temp;Humidity;BMP_temperature;BMP_pressure;BME280_temperature;BME280_humidity;BME280_pressure;Samples;Min_cycle;Max_cycle;Signal;HPM_P1;HPM_P2
2023/02/04 00:01:07;;;;;;;3.80;2.17;;;4.10;1.00;;;;;;6251701;22;20998;-79
2023/02/04 00:03:34;;;;;;;5.80;3.67;;;4.10;1.00;;;;;;6254672;22;20631;-78
2023/02/04 00:06:01;;;;;;;3.33;2.28;;;4.10;1.00;;;;;;6251316;22;20291;-79
2023/02/04 00:08:28;;;;;;;3.80;2.30;;;4.00;1.00;;;;;;6253152;22;20908;-78
2023/02/04 00:10:56;;;;;;;3.80;2.30;;;4.10;1.00;;;;;;6252568;22;20212;-78
2023/02/04 00:13:26;;;;;;;3.83;2.70;;;4.10;1.00;;;;;;6252986;22;20204;-78
2023/02/04 00:15:53;;;;;;;6.60;2.65;;;4.00;1.00;;;;;;6252962;22;20276;-82
2023/02/04 00:18:20;;;;;;;3.70;1.95;;;4.00;1.00;;;;;;6237962;22;20216;-79
2023/02/04 00:20:48;;;;;;;3.20;2.05;;;4.00;1.00;;;;;;6254322;22;20205;-79
2023/02/04 00:23:15;;;;;;;3.75;2.20;;;4.00;1.00;;;;;;6253251;22;20239;-78
2023/02/04 00:25:42;;;;;;;3.45;2.50;;;4.00;1.00;;;;;;6253067;22;20209;-82
2023/02/04 00:28:11;;;;;;;4.10;2.40;;;4.00;1.00;;;;;;6252057;22;20244;-78
2023/02/04 00:30:38;;;;;;;3.95;2.40;;;4.00;1.00;;;;;;6251984;22;21010;-78
2023/02/04 00:33:04;;;;;;;2.97;2.20;;;4.00;1.00;;;;;;6252120;22;20267;-79
2023/02/04 00:35:36;;;;;;;3.20;2.00;;;4.00;1.00;;;;;;6237118;22;20212;-84
2023/02/04 00:38:05;;;;;;;3.75;2.35;;;4.00;1.00;;;;;;6251085;22;20244;-79
2023/02/04 00:40:32;;;;;;;4.18;2.17;;;4.00;1.00;;;;;;6253900;22;20243;-78
2023/02/04 00:43:01;;;;;;;4.30;1.70;;;3.90;1.00;;;;;;6253538;22;21038;-79
2023/02/04 00:45:30;;;;;;;4.05;1.40;;;3.80;1.00;;;;;;6252573;22;20212;-79
2023/02/04 00:47:58;;;;;;;3.10;1.70;;;3.70;1.00;;;;;;6251734;22;20229;-79
2023/02/04 00:50:26;;;;;;;3.00;1.30;;;3.60;1.00;;;;;;6254340;22;20255;-78
2023/02/04 00:52:53;;;;;;;3.75;2.20;;;3.60;1.00;;;;;;6251726;22;20258;-79
2023/02/04 00:55:21;;;;;;;2.92;1.42;;;3.60;1.00;;;;;;6249060;22;20221;-78
2023/02/04 00:57:48;;;;;;;5.13;2.38;;;3.50;1.00;;;;;;6237803;22;20212;-79
2023/02/04 01:00:16;;;;;;;2.80;1.42;;;3.40;1.00;;;;;;6251344;22;20932;-82
2023/02/04 01:02:44;;;;;;;4.68;2.42;;;3.40;1.00;;;;;;6253600;22;20205;-78
2023/02/04 01:05:11;;;;;;;3.03;1.70;;;3.40;1.00;;;;;;6251556;22;20209;-77
2023/02/04 01:07:38;;;;;;;4.05;1.83;;;3.40;1.00;;;;;;6254005;22;20311;-78
2023/02/04 01:10:07;;;;;;;2.95;1.10;;;3.50;1.00;;;;;;6252710;22;20247;-78
2023/02/04 01:12:36;;;;;;;2.70;1.50;;;3.50;1.00;;;;;;6254165;22;20257;-78
2023/02/04 01:15:03;;;;;;;2.42;1.10;;;3.40;1.00;;;;;;6253107;22;20268;-78
2023/02/04 01:17:30;;;;;;;4.55;1.63;;;3.30;1.00;;;;;;6253673;22;20291;-78
2023/02/04 01:19:59;;;;;;;3.80;1.40;;;3.20;1.00;;;;;;6251551;22;20232;-83
2023/02/04 01:22:26;;;;;;;4.25;2.05;;;3.20;1.00;;;;;;6249776;22;20620;-77
2023/02/04 01:24:53;;;;;;;4.45;1.65;;;3.20;1.00;;;;;;6251990;22;20295;-78
2023/02/04 01:27:20;;;;;;;3.30;1.70;;;3.10;1.00;;;;;;6252171;22;20232;-78
2023/02/04 01:29:48;;;;;;;4.18;1.48;;;3.00;1.00;;;;;;6254362;22;20217;-77
2023/02/04 01:32:15;;;;;;;5.65;2.75;;;3.10;1.00;;;;;;6254270;22;20271;-78
2023/02/04 01:34:42;;;;;;;3.38;1.60;;;3.00;1.00;;;;;;6252051;22;20617;-79
2023/02/04 01:37:11;;;;;;;3.42;1.80;;;3.10;1.00;;;;;;6254044;22;20213;-77
2023/02/04 01:39:37;;;;;;;4.80;1.90;;;3.00;1.00;;;;;;6253736;22;20213;-81
2023/02/04 01:42:05;;;;;;;4.05;2.17;;;2.90;1.00;;;;;;6235474;22;20237;-78
2023/02/04 01:44:32;;;;;;;4.82;2.20;;;2.90;1.00;;;;;;6253471;22;20240;-77
2023/02/04 01:47:01;;;;;;;3.50;1.90;;;2.90;1.00;;;;;;6252119;22;20213;-80
2023/02/04 01:49:29;;;;;;;4.97;1.90;;;2.90;1.00;;;;;;6250800;22;20208;-77
2023/02/04 01:51:56;;;;;;;3.88;2.25;;;2.90;1.00;;;;;;6251726;22;20219;-79
2023/02/04 01:54:26;;;;;;;3.72;1.42;;;2.80;1.00;;;;;;6252693;22;20638;-77
2023/02/04 01:56:54;;;;;;;5.80;1.60;;;2.80;1.00;;;;;;6252073;22;21106;-77
2023/02/04 01:59:22;;;;;;;3.58;1.77;;;2.70;1.00;;;;;;6250005;22;20248;-78
2023/02/04 02:01:55;;;;;;;3.67;1.67;;;2.70;1.00;;;;;;6254218;22;20209;-77
2023/02/04 02:04:33;;;;;;;4.47;2.17;;;2.70;1.00;;;;;;6240405;22;20740;-79
2023/02/04 02:07:03;;;;;;;4.78;2.55;;;2.70;1.00;;;;;;6252396;22;20327;-78
2023/02/04 02:09:34;;;;;;;4.97;2.00;;;2.70;1.00;;;;;;6254542;22;20779;-77
2023/02/04 02:12:03;;;;;;;3.70;1.40;;;2.80;1.00;;;;;;6253388;22;20212;-81
2023/02/04 02:14:30;;;;;;;4.45;1.73;;;2.90;1.00;;;;;;6250150;22;20217;-84
2023/02/04 02:16:56;;;;;;;4.03;2.40;;;3.00;1.00;;;;;;6252358;22;20747;-81
2023/02/04 02:19:36;;;;;;;4.28;1.88;;;3.00;1.00;;;;;;6255255;22;20731;-78
2023/02/04 02:22:11;;;;;;;3.35;1.50;;;3.00;1.00;;;;;;6253056;22;20215;-77
2023/02/04 02:24:39;;;;;;;2.45;1.27;;;3.10;1.00;;;;;;6252582;22;20220;-79
2023/02/04 02:27:09;;;;;;;3.75;1.50;;;3.20;1.00;;;;;;6253161;22;20651;-77
2023/02/04 02:29:37;;;;;;;3.78;1.85;;;3.30;1.00;;;;;;6251711;22;20994;-78
2023/02/04 02:32:05;;;;;;;4.40;2.38;;;3.30;1.00;;;;;;6250901;22;20213;-80
2023/02/04 02:34:32;;;;;;;3.08;1.80;;;3.30;1.00;;;;;;6239242;22;20709;-77
2023/02/04 02:37:00;;;;;;;2.83;1.45;;;3.20;1.00;;;;;;6253855;22;20300;-78
2023/02/04 02:39:27;;;;;;;3.17;1.80;;;3.10;1.00;;;;;;6239753;22;20221;-77
2023/02/04 02:41:56;;;;;;;3.50;1.75;;;3.00;1.00;;;;;;6252922;22;20225;-77
2023/02/04 02:44:26;;;;;;;3.42;1.60;;;3.00;1.00;;;;;;6252292;22;20209;-78
2023/02/04 02:46:53;;;;;;;4.20;1.70;;;3.00;1.00;;;;;;6253993;22;20219;-79
2023/02/04 02:49:21;;;;;;;3.15;1.58;;;3.00;1.00;;;;;;6252419;22;20227;-79
2023/02/04 02:51:48;;;;;;;4.88;2.45;;;2.90;1.00;;;;;;6252907;22;20292;-79
2023/02/04 02:54:22;;;;;;;3.15;1.73;;;2.90;1.00;;;;;;6253589;22;20216;-79
2023/02/04 02:56:50;;;;;;;4.55;1.40;;;2.80;1.00;;;;;;6249794;22;20212;-78
2023/02/04 02:59:19;;;;;;;3.30;1.48;;;2.70;1.00;;;;;;6253068;22;20626;-78
2023/02/04 03:01:50;;;;;;;7.47;1.50;;;2.60;1.00;;;;;;6252904;22;20216;-79
2023/02/04 03:04:20;;;;;;;2.95;1.40;;;2.60;1.00;;;;;;6252176;22;20223;-78
2023/02/04 03:06:47;;;;;;;3.10;1.70;;;2.50;1.00;;;;;;6256989;22;20209;-78
2023/02/04 03:09:14;;;;;;;3.53;1.50;;;2.50;1.00;;;;;;6254533;22;20212;-78
2023/02/04 03:11:44;;;;;;;3.67;1.52;;;2.40;1.00;;;;;;6253526;22;20260;-78
2023/02/04 03:14:11;;;;;;;2.90;1.38;;;2.40;1.00;;;;;;6237750;22;20264;-77
2023/02/04 03:16:40;;;;;;;4.53;2.15;;;2.30;1.00;;;;;;6239931;22;20665;-79
2023/02/04 03:19:08;;;;;;;3.85;1.60;;;2.30;1.00;;;;;;6251624;22;20221;-82
2023/02/04 03:21:36;;;;;;;3.47;2.13;;;2.30;1.00;;;;;;6250996;22;20236;-77
2023/02/04 03:24:03;;;;;;;4.05;2.10;;;2.30;1.00;;;;;;6252230;22;20221;-78
2023/02/04 03:26:30;;;;;;;5.90;2.08;;;2.30;1.00;;;;;;6253880;22;20224;-77
2023/02/04 03:28:59;;;;;;;3.80;1.50;;;2.30;1.00;;;;;;6248894;22;20244;-78
2023/02/04 03:31:28;;;;;;;3.80;1.73;;;2.20;1.00;;;;;;6252771;22;20287;-77
2023/02/04 03:33:56;;;;;;;2.85;1.42;;;2.10;1.00;;;;;;6253570;22;20220;-78
2023/02/04 03:36:24;;;;;;;4.07;1.70;;;2.10;1.00;;;;;;6252631;22;20291;-77
2023/02/04 03:38:53;;;;;;;6.47;2.75;;;2.10;1.00;;;;;;6254341;22;20208;-78
2023/02/04 03:41:20;;;;;;;5.40;2.30;;;2.10;1.00;;;;;;6253553;22;20242;-77
2023/02/04 03:43:47;;;;;;;3.63;1.80;;;2.00;1.00;;;;;;6255231;22;20308;-77
2023/02/04 03:46:14;;;;;;;2.90;1.90;;;2.00;1.00;;;;;;6239928;22;20228;-78
2023/02/04 03:48:41;;;;;;;5.28;1.70;;;2.00;1.00;;;;;;6253727;22;20213;-76
2023/02/04 03:51:09;;;;;;;3.25;1.92;;;2.00;1.00;;;;;;6252452;22;20347;-78
2023/02/04 03:53:36;;;;;;;3.92;1.90;;;2.00;1.00;;;;;;6253533;22;20955;-77
2023/02/04 03:56:04;;;;;;;3.55;1.98;;;2.00;1.00;;;;;;6253311;22;20216;-81
2023/02/04 03:58:30;;;;;;;3.47;1.73;;;2.00;1.00;;;;;;6253242;22;20247;-77
2023/02/04 04:00:57;;;;;;;3.97;1.80;;;1.90;1.00;;;;;;6253884;22;20741;-78
2023/02/04 04:03:24;;;;;;;4.85;1.60;;;1.90;1.00;;;;;;6254544;22;20258;-78
2023/02/04 04:05:51;;;;;;;3.20;1.98;;;1.90;1.00;;;;;;6253811;22;20208;-78
2023/02/04 04:08:19;;;;;;;2.80;1.70;;;1.90;1.00;;;;;;6250443;22;20255;-81
2023/02/04 04:10:46;;;;;;;3.30;1.52;;;1.90;1.00;;;;;;6252349;22;20213;-80
2023/02/04 04:13:13;;;;;;;3.47;1.80;;;1.90;1.00;;;;;;6250236;22;20214;-82
2023/02/04 04:15:40;;;;;;;3.55;1.80;;;1.90;1.00;;;;;;6252257;22;20212;-78
2023/02/04 04:18:07;;;;;;;4.90;1.40;;;2.00;1.00;;;;;;6253182;22;20212;-77
2023/02/04 04:20:34;;;;;;;2.90;1.55;;;2.10;1.00;;;;;;6255227;22;20217;-77
2023/02/04 04:23:01;;;;;;;4.95;1.45;;;2.20;1.00;;;;;;6249675;22;20217;-76
2023/02/04 04:25:29;;;;;;;3.67;1.60;;;2.30;1.00;;;;;;6250446;22;21378;-77
2023/02/04 04:27:56;;;;;;;2.83;1.45;;;2.30;1.00;;;;;;6253630;22;20212;-77
2023/02/04 04:30:23;;;;;;;2.92;1.40;;;2.40;1.00;;;;;;6249691;22;21049;-77
2023/02/04 04:32:51;;;;;;;3.55;2.08;;;2.50;1.00;;;;;;6251944;22;20216;-81
2023/02/04 04:35:18;;;;;;;4.50;1.98;;;2.50;1.00;;;;;;6248394;22;20267;-80
2023/02/04 04:37:45;;;;;;;2.60;1.45;;;2.50;1.00;;;;;;6252653;22;20212;-77
2023/02/04 04:40:12;;;;;;;5.65;1.50;;;2.50;1.00;;;;;;6251398;22;20244;-79
2023/02/04 04:42:41;;;;;;;3.75;1.52;;;2.40;1.00;;;;;;6253809;22;20254;-77
2023/02/04 04:45:11;;;;;;;4.05;1.70;;;2.40;1.00;;;;;;6252095;22;20213;-77
2023/02/04 04:47:38;;;;;;;4.85;2.30;;;2.30;1.00;;;;;;6254588;22;20220;-77
2023/02/04 04:50:06;;;;;;;3.92;1.85;;;2.30;1.00;;;;;;6251739;22;20213;-80
2023/02/04 04:52:33;;;;;;;3.67;1.65;;;2.30;1.00;;;;;;6253157;22;20219;-78
2023/02/04 04:54:59;;;;;;;3.05;1.73;;;2.20;1.00;;;;;;6250675;22;20268;-77
2023/02/04 04:57:27;;;;;;;5.25;1.42;;;2.10;1.00;;;;;;6252720;22;20267;-79
2023/02/04 04:59:57;;;;;;;3.53;1.55;;;2.10;1.00;;;;;;6252494;22;20247;-79
2023/02/04 05:02:24;;;;;;;5.57;1.48;;;2.10;1.00;;;;;;6246682;22;20215;-82
2023/02/04 05:04:57;;;;;;;2.58;1.05;;;2.00;1.00;;;;;;6251239;22;20213;-77
2023/02/04 05:07:29;;;;;;;4.13;1.35;;;2.00;1.00;;;;;;6238782;22;20298;-83
2023/02/04 05:09:58;;;;;;;3.50;1.50;;;2.00;1.00;;;;;;6239581;22;20212;-79
2023/02/04 05:12:27;;;;;;;4.90;1.40;;;1.90;1.00;;;;;;6221221;22;20220;-78
2023/02/04 05:14:57;;;;;;;4.25;1.70;;;1.90;1.00;;;;;;6233982;22;20669;-77
2023/02/04 05:17:24;;;;;;;4.40;1.73;;;1.80;1.00;;;;;;6217215;22;20729;-77
2023/02/04 05:19:54;;;;;;;4.72;1.60;;;1.80;1.00;;;;;;6253562;22;20215;-79
2023/02/04 05:22:21;;;;;;;3.42;1.60;;;1.90;1.00;;;;;;6249608;22;21015;-80
2023/02/04 05:24:48;;;;;;;3.30;1.70;;;1.90;1.00;;;;;;6251210;22;20266;-81
2023/02/04 05:27:17;;;;;;;4.22;1.90;;;1.80;1.00;;;;;;6220385;22;20316;-78
2023/02/04 05:29:46;;;;;;;5.07;1.98;;;1.80;1.00;;;;;;6223081;22;20244;-76
2023/02/04 05:32:15;;;;;;;3.25;1.40;;;1.70;1.00;;;;;;6237785;22;20238;-76
2023/02/04 05:34:48;;;;;;;3.28;1.90;;;1.70;1.00;;;;;;6251814;22;20252;-77
2023/02/04 05:37:19;;;;;;;5.75;1.70;;;1.70;1.00;;;;;;6211086;22;20201;-77
2023/02/04 05:39:47;;;;;;;4.63;1.55;;;1.70;1.00;;;;;;6255361;22;20275;-76
2023/02/04 05:42:17;;;;;;;3.08;1.75;;;1.70;1.00;;;;;;6240378;22;20296;-78
2023/02/04 05:44:44;;;;;;;4.80;1.23;;;1.60;1.00;;;;;;6241634;22;20229;-78
2023/02/04 05:47:11;;;;;;;5.75;2.22;;;1.70;1.00;;;;;;6254487;22;21022;-79
2023/02/04 05:49:39;;;;;;;3.97;2.10;;;1.70;1.00;;;;;;6256565;22;20696;-77
2023/02/04 05:52:06;;;;;;;4.70;2.65;;;1.60;1.00;;;;;;6254315;22;20870;-78
2023/02/04 05:54:36;;;;;;;4.55;1.77;;;1.60;1.00;;;;;;6255718;22;20224;-77
2023/02/04 05:57:03;;;;;;;6.40;4.00;;;1.60;1.00;;;;;;6237813;22;20205;-78
2023/02/04 05:59:31;;;;;;;4.03;2.35;;;1.60;1.00;;;;;;6256326;22;20247;-79
2023/02/04 06:01:58;;;;;;;3.83;1.73;;;1.60;1.00;;;;;;6254693;22;20894;-83
2023/02/04 06:04:28;;;;;;;6.03;3.17;;;1.50;1.00;;;;;;6254198;22;20212;-79
2023/02/04 06:06:58;;;;;;;3.97;1.50;;;1.50;1.00;;;;;;6256138;22;20208;-77
2023/02/04 06:09:25;;;;;;;5.20;1.90;;;1.50;1.00;;;;;;6239846;22;20685;-77
2023/02/04 06:11:58;;;;;;;5.07;1.58;;;1.40;1.00;;;;;;6252359;22;20213;-77
2023/02/04 06:14:25;;;;;;;9.48;2.10;;;1.40;1.00;;;;;;6240173;22;20259;-77
2023/02/04 06:16:58;;;;;;;5.35;1.88;;;1.40;1.00;;;;;;6226394;22;20917;-77
2023/02/04 06:19:27;;;;;;;4.38;1.42;;;1.40;1.00;;;;;;6240929;22;20303;-77
2023/02/04 06:21:54;;;;;;;4.32;1.75;;;1.40;1.00;;;;;;6224483;22;20220;-79
2023/02/04 06:24:23;;;;;;;4.85;2.40;;;1.30;1.00;;;;;;6232291;22;20220;-77
2023/02/04 06:26:58;;;;;;;5.40;1.75;;;1.30;1.00;;;;;;6261354;22;20213;-77
2023/02/04 06:29:26;;;;;;;7.82;1.90;;;1.30;1.00;;;;;;6227181;22;20211;-78
2023/02/04 06:31:59;;;;;;;17.42;10.27;;;1.30;1.00;;;;;;6241830;22;20220;-77
2023/02/04 06:34:26;;;;;;;6.38;2.65;;;1.30;1.00;;;;;;6225721;22;21016;-77
2023/02/04 06:36:57;;;;;;;3.92;1.80;;;1.20;1.00;;;;;;6227368;22;20208;-78
2023/02/04 06:39:28;;;;;;;3.40;1.42;;;1.20;1.00;;;;;;6257106;22;20274;-77
2023/02/04 06:42:09;;;;;;;5.00;2.00;;;1.20;1.00;;;;;;6249999;22;20858;-79
2023/02/04 06:44:38;;;;;;;4.65;1.65;;;1.20;1.00;;;;;;6246111;22;20222;-80
2023/02/04 06:47:08;;;;;;;3.35;1.85;;;1.20;1.00;;;;;;6230880;22;20946;-81
2023/02/04 06:49:40;;;;;;;5.72;1.80;;;1.20;1.00;;;;;;6266245;22;20216;-82
2023/02/04 06:52:10;;;;;;;3.75;2.13;;;1.20;1.00;;;;;;6265972;22;20196;-80
2023/02/04 06:57:37;;;;;;;5.13;1.88;;;1.20;1.00;;;;;;6242594;22;20296;-81
2023/02/04 07:00:09;;;;;;;3.78;1.80;;;1.20;1.00;;;;;;6233897;22;20200;-79
2023/02/04 07:02:58;;;;;;;7.90;4.65;;;1.30;1.00;;;;;;6258588;22;20243;-81
2023/02/04 07:05:37;;;;;;;5.78;3.53;;;1.30;1.00;;;;;;6104650;23;21131;-80
2023/02/04 07:08:09;;;;;;;5.47;2.60;;;1.30;1.00;;;;;;6110079;22;20219;-80
2023/02/04 07:10:38;;;;;;;5.93;2.70;;;1.30;1.00;;;;;;6252808;22;20221;-84
2023/02/04 07:15:58;;;;;;;5.22;2.45;;;1.30;1.00;;;;;;6239417;22;20235;-80
2023/02/04 07:18:29;;;;;;;7.43;2.63;;;1.30;1.00;;;;;;6242179;22;20220;-80
2023/02/04 07:21:09;;;;;;;;;;;;;;;;;;;;;
2023/02/04 07:23:39;;;;;;;11.07;6.93;;;1.40;1.00;;;;;;6243125;22;51700;-80
2023/02/04 07:26:19;;;;;;;3.45;2.03;;;1.40;1.00;;;;;;6230871;22;20214;-82
2023/02/04 07:28:49;;;;;;;5.88;3.08;;;1.50;1.00;;;;;;6257887;22;20278;-80
2023/02/04 07:31:29;;;;;;;3.90;2.10;;;1.50;1.00;;;;;;6254395;22;20204;-84
2023/02/04 07:33:58;;;;;;;4.50;2.00;;;1.60;1.00;;;;;;6246510;22;20387;-80
2023/02/04 07:36:50;;;;;;;;;;;;;;;;;;;;;
2023/02/04 07:39:19;;;;;;;3.60;2.38;;;1.60;1.00;;;;;;6227617;22;40696;-81
2023/02/04 07:44:39;;;;;;;4.80;2.03;;;1.60;1.00;;;;;;6248300;22;20692;-80
2023/02/04 07:47:18;;;;;;;3.70;2.50;;;1.60;1.00;;;;;;6238773;22;20262;-80
2023/02/04 07:50:09;;;;;;;4.38;2.15;;;1.60;1.00;;;;;;6273674;22;20184;-81
2023/02/04 07:55:41;;;;;;;4.60;2.03;;;1.70;1.00;;;;;;6250964;22;20712;-80
2023/02/04 07:58:28;;;;;;;4.50;2.33;;;1.80;1.00;;;;;;6251623;22;20250;-80
2023/02/04 08:01:06;;;;;;;5.38;2.03;;;1.80;1.00;;;;;;6255955;22;20207;-84
2023/02/04 08:04:00;;;;;;;6.10;3.78;;;1.90;1.00;;;;;;6251170;22;20208;-83
2023/02/04 08:06:49;;;;;;;4.95;2.50;;;2.00;1.00;;;;;;6242483;22;20266;-81
2023/02/04 08:09:19;;;;;;;3.70;2.55;;;2.00;1.00;;;;;;6245909;22;20209;-81
2023/02/04 08:11:50;;;;;;;7.50;3.20;;;2.10;1.00;;;;;;6241497;22;20385;-81
2023/02/04 08:14:29;;;;;;;9.55;8.85;;;2.20;1.00;;;;;;6238452;22;20456;-81
2023/02/04 08:17:18;;;;;;;4.35;2.97;;;2.40;1.00;;;;;;6248872;22;20208;-83
2023/02/04 08:29:40;;;;;;;5.93;3.47;;;2.90;1.00;;;;;;6044044;23;20307;-79
2023/02/04 08:32:16;;;;;;;4.15;2.95;;;3.00;1.00;;;;;;6114997;23;20196;-80
2023/02/04 08:35:00;;;;;;;5.32;2.25;;;3.10;1.00;;;;;;6106142;23;20198;-79
2023/02/04 08:37:30;;;;;;;6.53;2.92;;;3.30;1.00;;;;;;6136518;22;20208;-80
2023/02/04 08:40:00;;;;;;;4.55;2.90;;;3.60;1.00;;;;;;6252579;22;20233;-85
2023/02/04 08:42:50;;;;;;;5.25;2.72;;;4.30;1.00;;;;;;6238987;22;20217;-80
2023/02/04 08:45:30;;;;;;;4.43;2.58;;;5.00;1.00;;;;;;6237356;22;21765;-81
2023/02/04 08:48:06;;;;;;;6.60;2.10;;;5.30;1.00;;;;;;6267371;22;20258;-80
2023/02/04 08:50:38;;;;;;;4.25;1.80;;;5.50;1.00;;;;;;6254688;22;20216;-79
2023/02/04 08:53:18;;;;;;;5.13;1.95;;;5.50;1.00;;;;;;6225819;22;20219;-79
2023/02/04 08:55:48;;;;;;;4.82;2.60;;;5.50;1.00;;;;;;6229341;22;20209;-80
2023/02/04 08:58:23;;;;;;;6.18;2.30;;;5.50;1.00;;;;;;6250033;22;20208;-81
2023/02/04 09:00:59;;;;;;;3.58;2.00;;;5.50;1.00;;;;;;6248568;22;20212;-80
2023/02/04 09:03:28;;;;;;;5.25;2.63;;;5.40;1.00;;;;;;6240880;22;20339;-80
2023/02/04 09:06:10;;;;;;;5.03;2.90;;;5.50;1.00;;;;;;6248756;22;20290;-81
2023/02/04 09:08:40;;;;;;;5.95;2.58;;;5.50;1.00;;;;;;6230935;22;20226;-79
2023/02/04 09:11:09;;;;;;;3.60;2.00;;;5.50;1.00;;;;;;6232046;22;20219;-77
2023/02/04 09:13:39;;;;;;;4.10;2.17;;;5.50;1.00;;;;;;6267845;22;20267;-79
2023/02/04 09:16:08;;;;;;;4.50;2.13;;;5.50;1.00;;;;;;6244143;22;20209;-77
2023/02/04 09:25:47;;;;;;;6.57;3.05;;;6.20;1.00;;;;;;6212134;22;20205;-88
2023/02/04 09:28:39;;;;;;;3.65;1.90;;;6.30;1.00;;;;;;6170649;23;20926;-88
2023/02/04 09:34:08;;;;;;;5.10;2.40;;;6.30;1.00;;;;;;6136047;23;20210;-86
2023/02/04 09:36:39;;;;;;;4.68;2.70;;;6.90;1.00;;;;;;6160580;23;20248;-88
2023/02/04 09:39:10;;;;;;;6.00;3.10;;;7.40;1.00;;;;;;6159957;23;20274;-86
2023/02/04 09:44:39;;;;;;;6.23;4.70;;;9.70;1.00;;;;;;6165524;23;20274;-86
2023/02/04 09:47:18;;;;;;;5.17;2.37;;;10.80;1.00;;;;;;6149744;23;20405;-86
2023/02/04 09:50:31;;;;;;;;;;;;;;;;;;;;;
2023/02/04 09:53:07;;;;;;;3.37;1.40;;;11.90;1.00;;;;;;6043441;23;47976;-87
2023/02/04 09:55:41;;;;;;;8.60;3.20;;;11.80;1.00;;;;;;6073062;23;20451;-86
2023/02/04 09:58:19;;;;;;;3.53;1.60;;;11.50;1.00;;;;;;6109048;22;20403;-86
2023/02/04 10:00:59;;;;;;;5.20;2.43;;;11.40;1.00;;;;;;6217478;22;20417;-86
2023/02/04 10:03:28;;;;;;;5.07;2.47;;;11.20;1.00;;;;;;6198231;22;20435;-85
2023/02/04 10:06:01;;;;;;;4.60;2.60;;;10.70;1.00;;;;;;6192718;22;20425;-86
2023/02/04 10:11:39;;;;;;;5.40;2.57;;;10.70;1.00;;;;;;6187849;22;20432;-85
2023/02/04 10:14:10;;;;;;;7.47;2.20;;;10.80;1.00;;;;;;6186234;23;20412;-85
2023/02/04 10:16:42;;;;;;;7.00;2.70;;;10.40;1.00;;;;;;6211318;23;21139;-86
2023/02/04 10:19:19;;;;;;;4.47;2.03;;;10.60;1.00;;;;;;6184633;22;20401;-86
2023/02/04 10:21:48;;;;;;;5.70;2.20;;;10.30;1.00;;;;;;6211462;23;20396;-85
2023/02/04 10:24:30;;;;;;;6.20;1.50;;;10.10;1.00;;;;;;6198161;23;20413;-85
2023/02/04 10:27:09;;;;;;;5.07;1.80;;;9.60;1.00;;;;;;6212905;22;20435;-86
2023/02/04 10:29:41;;;;;;;5.33;1.70;;;9.30;1.00;;;;;;6227370;22;20432;-85
2023/02/04 10:32:48;;;;;;;7.23;1.57;;;9.20;1.00;;;;;;6216583;22;20986;-86
2023/02/04 10:35:39;;;;;;;4.93;2.10;;;9.50;1.00;;;;;;6215400;22;20419;-83
2023/02/04 10:38:10;;;;;;;11.30;5.40;;;9.60;1.00;;;;;;6214084;22;20428;-86
2023/02/04 10:41:01;;;;;;;9.30;2.33;;;9.70;1.00;;;;;;6225470;22;20974;-86
2023/02/04 11:00:43;;;;;;;5.18;1.70;;;10.00;1.00;;;;;;6229240;22;20414;-85
2023/02/04 11:03:38;;;;;;;12.13;3.43;;;10.00;1.00;;;;;;6213202;22;20275;-85
2023/02/04 11:09:20;;;;;;;6.53;2.00;;;9.80;1.00;;;;;;6215509;22;20415;-85
2023/02/04 11:12:11;;;;;;;6.03;1.87;;;9.10;1.00;;;;;;6226990;22;20451;-85
2023/02/04 11:15:21;;;;;;;6.23;2.87;;;8.80;1.00;;;;;;6223530;22;20413;-89
2023/02/04 12:02:41;;;;;;;5.57;1.40;;;9.70;1.00;;;;;;6100540;22;21174;-86
2023/02/04 12:42:07;;;;;;;6.65;1.63;;;6.60;1.00;;;;;;6078001;23;20217;-88
2023/02/04 12:44:41;;;;;;;7.85;1.85;;;6.60;1.00;;;;;;6109984;23;20232;-87
2023/02/04 12:47:30;;;;;;;5.63;1.10;;;6.60;1.00;;;;;;6108182;23;20268;-86
2023/02/04 12:50:00;;;;;;;7.13;1.13;;;6.50;1.00;;;;;;6109573;23;20821;-87
2023/02/04 12:52:29;;;;;;;5.18;0.80;;;6.60;1.00;;;;;;6112054;23;20308;-87
2023/02/04 12:55:07;;;;;;;5.75;1.20;;;6.60;1.00;;;;;;6140352;22;20201;-87
2023/02/04 13:00:50;;;;;;;5.90;2.10;;;6.80;1.00;;;;;;6241620;22;20215;-89
2023/02/04 13:03:51;;;;;;;5.55;1.33;;;6.90;1.00;;;;;;6236859;23;20235;-86
2023/02/04 13:06:29;;;;;;;9.45;2.95;;;7.20;1.00;;;;;;6226099;22;20215;-84
2023/02/04 13:09:09;;;;;;;6.00;1.88;;;7.30;1.00;;;;;;6251606;22;20232;-86
2023/02/04 13:11:39;;;;;;;5.50;1.95;;;7.30;1.00;;;;;;6221668;22;20215;-83
2023/02/04 13:14:20;;;;;;;8.90;2.00;;;7.40;1.00;;;;;;6167058;23;20199;-87
2023/02/04 13:19:51;;;;;;;5.20;1.25;;;7.70;1.00;;;;;;6107839;23;20425;-84
2023/02/04 13:25:48;;;;;;;5.95;1.58;;;7.20;1.00;;;;;;6097827;23;20219;-84
2023/02/04 13:28:31;;;;;;;12.00;5.78;;;7.10;1.00;;;;;;6168419;22;20222;-85
2023/02/04 13:31:59;;;;;;;;;;;;;;;;;;;;;
2023/02/04 13:45:20;;;;;;;7.07;1.30;;;8.60;1.00;;;;;;6241490;22;20212;-84
2023/02/04 13:48:17;;;;;;;6.23;2.00;;;8.20;1.00;;;;;;6249945;22;20258;-86
2023/02/04 13:50:52;;;;;;;5.75;1.58;;;7.90;1.00;;;;;;6233004;22;20405;-84
2023/02/04 13:53:39;;;;;;;4.70;1.20;;;7.80;1.00;;;;;;6202236;22;20224;-89
2023/02/04 13:59:31;;;;;;;7.33;2.63;;;7.70;1.00;;;;;;6210530;22;20220;-87
2023/02/04 14:05:12;;;;;;;8.98;2.28;;;7.50;1.00;;;;;;6163357;22;20364;-86
2023/02/04 14:07:48;;;;;;;12.52;2.47;;;7.30;1.00;;;;;;6255588;22;20225;-89
2023/02/04 14:10:21;;;;;;;6.20;1.58;;;7.20;1.00;;;;;;6219071;22;20202;-88
2023/02/04 14:18:49;;;;;;;;;;;;;;;;;;;;;
2023/02/04 14:21:40;;;;;;;7.07;1.60;;;6.30;1.00;;;;;;6225872;22;38528;-88
2023/02/04 14:24:21;;;;;;;10.57;1.40;;;6.10;1.00;;;;;;6246653;22;20213;-84
2023/02/04 14:26:49;;;;;;;5.97;1.45;;;5.80;1.00;;;;;;6267238;22;20264;-85
2023/02/04 14:29:30;;;;;;;7.10;1.38;;;5.60;1.00;;;;;;6249456;22;20212;-85
2023/02/04 14:32:09;;;;;;;6.00;1.00;;;5.50;1.00;;;;;;6265798;22;20213;-85
2023/02/04 14:35:12;;;;;;;8.50;2.80;;;5.40;1.00;;;;;;6244999;22;20235;-84
2023/02/04 14:38:18;;;;;;;6.43;1.77;;;5.30;1.00;;;;;;6223712;22;20276;-86
2023/02/04 14:41:10;;;;;;;6.78;1.50;;;5.00;1.00;;;;;;6267976;22;20350;-87
2023/02/04 14:43:52;;;;;;;7.28;1.30;;;4.90;1.00;;;;;;6269100;22;20199;-84
2023/02/04 14:50:08;;;;;;;6.10;1.50;;;4.60;1.00;;;;;;6227275;22;20264;-89
2023/02/04 14:53:12;;;;;;;;;;;;;;;;;;;;;
2023/02/04 14:55:41;;;;;;;7.45;2.30;;;4.60;1.00;;;;;;6202994;22;48944;-89
2023/02/04 14:58:19;;;;;;;5.63;1.50;;;4.70;1.00;;;;;;6260306;22;20196;-86
2023/02/04 15:01:01;;;;;;;5.05;1.35;;;4.80;1.00;;;;;;6225755;22;20303;-83
2023/02/04 15:03:50;;;;;;;7.80;2.80;;;4.90;1.00;;;;;;6230213;22;20213;-84
2023/02/04 15:06:20;;;;;;;6.40;1.63;;;4.90;1.00;;;;;;6213938;22;20622;-84
2023/02/04 15:09:29;;;;;;;;;;;;;;;;;;;;;
2023/02/04 15:12:32;;;;;;;6.40;3.30;;;5.00;1.00;;;;;;6236115;22;50710;-86
2023/02/04 15:18:20;;;;;;;7.32;2.58;;;4.90;1.00;;;;;;6174748;22;20261;-86
2023/02/04 15:21:10;;;;;;;8.38;3.20;;;4.80;1.00;;;;;;6193500;22;20201;-83
2023/02/04 15:24:01;;;;;;;7.28;3.45;;;4.70;1.00;;;;;;6103590;23;21010;-84
2023/02/04 15:26:30;;;;;;;5.65;1.70;;;4.70;1.00;;;;;;6163843;22;20220;-82
2023/02/04 15:29:00;;;;;;;6.55;2.10;;;4.60;1.00;;;;;;6208097;22;20213;-84
2023/02/04 15:31:32;;;;;;;6.10;1.38;;;4.60;1.00;;;;;;6197001;22;20232;-83
2023/02/04 15:34:11;;;;;;;5.40;1.15;;;4.50;1.00;;;;;;6189792;22;20317;-81
2023/02/04 15:36:41;;;;;;;5.00;1.05;;;4.50;1.00;;;;;;6212032;22;20212;-85
2023/02/04 15:39:42;;;;;;;7.63;1.80;;;4.40;1.00;;;;;;6183718;22;20214;-84
2023/02/04 15:42:20;;;;;;;9.05;3.83;;;4.30;1.00;;;;;;6140930;23;20217;-84
2023/02/04 15:47:49;;;;;;;5.45;1.33;;;4.10;1.00;;;;;;6108002;23;20215;-82
2023/02/04 15:50:31;;;;;;;9.45;2.00;;;4.00;1.00;;;;;;6080168;23;20247;-82
2023/02/04 15:53:09;;;;;;;6.63;2.13;;;3.90;1.00;;;;;;6142105;22;20237;-84
2023/02/04 15:55:40;;;;;;;10.43;2.83;;;3.80;1.00;;;;;;6205112;22;20262;-84
2023/02/04 15:58:10;;;;;;;8.20;1.88;;;3.70;1.00;;;;;;6184955;22;20292;-83
2023/02/04 16:00:50;;;;;;;7.10;2.15;;;3.60;1.00;;;;;;6213027;23;20355;-84
2023/02/04 16:03:32;;;;;;;5.43;1.55;;;3.50;1.00;;;;;;6195630;23;20205;-83
2023/02/04 16:06:09;;;;;;;5.75;1.60;;;3.40;1.00;;;;;;6195894;22;20295;-83
2023/02/04 16:09:11;;;;;;;5.95;2.42;;;3.40;1.00;;;;;;6197152;23;20279;-84
2023/02/04 16:11:42;;;;;;;7.65;1.95;;;3.30;1.00;;;;;;6050772;23;20268;-82
2023/02/04 16:14:20;;;;;;;5.82;1.90;;;3.20;1.00;;;;;;6035735;23;20280;-83
2023/02/04 16:16:50;;;;;;;5.00;1.80;;;3.20;1.00;;;;;;6056540;23;20216;-83
2023/02/04 16:19:31;;;;;;;9.57;2.58;;;3.20;1.00;;;;;;6080009;23;20227;-86
2023/02/04 16:22:05;;;;;;;6.28;1.90;;;3.10;1.00;;;;;;6162642;22;20207;-83
2023/02/04 17:31:58;;;;;;;6.47;2.70;;;1.80;1.00;;;;;;6239280;22;20216;-84
2023/02/04 17:38:06;;;;;;;6.07;2.17;;;1.70;1.00;;;;;;6080389;23;20208;-83
2023/02/04 18:05:32;;;;;;;6.68;2.70;;;1.20;1.00;;;;;;6231110;22;20246;-88
2023/02/04 18:11:52;;;;;;;7.47;2.83;;;1.10;1.00;;;;;;6056295;23;20226;-88
2023/02/04 18:14:42;;;;;;;12.50;4.97;;;1.00;1.00;;;;;;6114399;23;20466;-86
2023/02/04 18:20:41;;;;;;;8.63;2.88;;;1.00;1.00;;;;;;5983109;23;20222;-86
2023/02/04 18:27:20;;;;;;;8.15;3.40;;;0.90;1.00;;;;;;6106291;23;20280;-85
2023/02/04 23:00:57;;;;;;;10.10;5.60;;;-0.40;1.00;;;;;;6164356;22;20206;-92
2023/02/04 23:06:16;;;;;;;8.93;5.13;;;-0.40;1.00;;;;;;6211710;22;20244;-89
2023/02/04 23:11:53;;;;;;;9.50;4.90;;;-0.30;1.00;;;;;;6231826;22;20209;-90
2023/02/04 23:14:26;;;;;;;8.40;4.43;;;-0.40;1.00;;;;;;6219271;22;20209;-90